Time;durP1;ratioP1;P1;durP2;ratioP2;P2;SDS_P1;SDS_P2;PMS_P1;PMS_P2;Temp;Humidity;BMP_temperature;BMP_pressure;BME280_temperature;BME280_humidity;BME280_pressure;Samples;Min_cycle;Max_cycle;Signal;HPM_P1;HPM_P2
2024/02/19 00:04:48;;;;;;;140.18;132.90;;;8.00;99.90;;;;;;12567350;28;20128;-35
2024/02/19 00:10:53;;;;;;;133.10;126.40;;;8.10;99.90;;;;;;12571259;28;20086;-34
2024/02/19 00:16:55;;;;;;;133.48;126.75;;;8.10;99.90;;;;;;12534245;28;20496;-35
2024/02/19 00:22:57;;;;;;;123.70;117.60;;;8.10;99.90;;;;;;12572483;28;20140;-35
2024/02/19 00:28:59;;;;;;;131.63;125.03;;;8.00;99.90;;;;;;12542079;28;20137;-35
2024/02/19 00:35:01;;;;;;;127.40;121.10;;;7.90;99.90;;;;;;12555335;28;20083;-35
2024/02/19 00:41:03;;;;;;;159.82;151.52;;;7.80;99.90;;;;;;12560030;28;20056;-35
2024/02/19 00:47:05;;;;;;;168.25;159.48;;;7.80;99.90;;;;;;12576219;28;20052;-35
2024/02/19 00:53:07;;;;;;;176.30;167.05;;;7.70;99.90;;;;;;12563126;28;20056;-34
2024/02/19 00:59:09;;;;;;;169.23;160.38;;;7.70;99.90;;;;;;12571703;28;20409;-35
2024/02/19 01:05:10;;;;;;;212.55;201.60;;;7.60;99.90;;;;;;12580344;28;20056;-35
2024/02/19 01:11:12;;;;;;;247.77;234.93;;;7.50;99.90;;;;;;12546066;28;20524;-35
2024/02/19 01:17:14;;;;;;;232.63;220.55;;;7.40;99.90;;;;;;12555751;28;20105;-35
2024/02/19 01:23:16;;;;;;;173.88;164.88;;;7.40;99.90;;;;;;12537617;28;20525;-35
2024/02/19 01:29:19;;;;;;;195.25;185.15;;;7.40;99.90;;;;;;12555805;28;20405;-35
2024/02/19 01:35:22;;;;;;;188.43;178.63;;;7.40;99.90;;;;;;12556779;28;20158;-34
2024/02/19 01:41:24;;;;;;;207.95;197.10;;;7.30;99.90;;;;;;12553763;28;20093;-35
2024/02/19 01:47:28;;;;;;;165.93;157.02;;;7.30;99.90;;;;;;12554395;28;20072;-35
2024/02/19 01:53:30;;;;;;;140.27;132.83;;;7.20;99.90;;;;;;12556366;28;20044;-34
2024/02/19 01:59:32;;;;;;;146.80;139.00;;;7.10;99.90;;;;;;12571428;28;20044;-34
2024/02/19 02:05:35;;;;;;;168.82;160.05;;;7.00;99.90;;;;;;12563591;28;20048;-35
2024/02/19 02:11:37;;;;;;;205.63;194.82;;;7.00;99.90;;;;;;12558237;28;20139;-34
2024/02/19 02:17:43;;;;;;;193.38;183.38;;;7.00;99.90;;;;;;12566645;28;20044;-34
2024/02/19 02:23:46;;;;;;;201.55;190.80;;;6.90;99.90;;;;;;12559407;28;20557;-35
2024/02/19 02:29:48;;;;;;;192.98;182.88;;;6.80;99.90;;;;;;12565890;28;20083;-34
2024/02/19 02:35:50;;;;;;;165.95;157.35;;;6.90;99.90;;;;;;12533873;28;20542;-34
2024/02/19 02:41:52;;;;;;;158.43;150.15;;;6.80;99.90;;;;;;12566621;28;20049;-35
2024/02/19 02:47:54;;;;;;;139.52;132.52;;;6.70;99.90;;;;;;12589313;28;20416;-35
2024/02/19 02:53:56;;;;;;;113.85;107.93;;;6.70;99.90;;;;;;12566995;28;20405;-35
2024/02/19 02:59:58;;;;;;;85.32;80.93;;;6.70;99.90;;;;;;12550686;28;20527;-34
2024/02/19 03:06:00;;;;;;;105.55;100.20;;;6.70;99.90;;;;;;12531120;28;20136;-35
2024/02/19 03:12:02;;;;;;;104.00;98.90;;;6.70;99.90;;;;;;12556353;28;20105;-34
2024/02/19 03:18:04;;;;;;;130.65;123.95;;;6.70;99.90;;;;;;12580612;28;20049;-34
2024/02/19 03:24:07;;;;;;;129.30;122.70;;;6.60;99.90;;;;;;12571068;28;20045;-35
2024/02/19 03:30:09;;;;;;;100.88;95.93;;;6.60;99.90;;;;;;12572036;28;20055;-35
2024/02/19 03:36:11;;;;;;;121.53;115.43;;;6.60;99.90;;;;;;12573563;28;20055;-34
2024/02/19 03:42:13;;;;;;;103.18;98.00;;;6.60;99.90;;;;;;12559092;28;20055;-35
2024/02/19 03:48:15;;;;;;;108.90;103.50;;;6.60;99.90;;;;;;12554418;28;20084;-35
2024/02/19 03:54:17;;;;;;;118.53;112.63;;;6.60;99.90;;;;;;12568064;28;20048;-35
2024/02/19 04:00:20;;;;;;;110.90;105.38;;;6.70;99.90;;;;;;12538529;28;20090;-35
2024/02/19 04:06:22;;;;;;;99.13;94.15;;;6.60;99.90;;;;;;12569767;28;20080;-34
2024/02/19 04:12:23;;;;;;;99.57;94.72;;;6.60;99.90;;;;;;12567114;28;20060;-35
2024/02/19 04:18:25;;;;;;;93.75;89.20;;;6.60;99.90;;;;;;12547738;28;20075;-35
2024/02/19 04:24:27;;;;;;;100.07;95.07;;;6.70;99.90;;;;;;12552733;28;20102;-35
2024/02/19 04:30:29;;;;;;;105.28;99.97;;;6.60;99.90;;;;;;12559913;28;20095;-35
2024/02/19 04:36:32;;;;;;;110.90;105.35;;;6.60;99.90;;;;;;12564656;28;20052;-35
2024/02/19 04:42:34;;;;;;;89.93;85.43;;;6.70;99.90;;;;;;12558284;28;20048;-35
2024/02/19 04:48:36;;;;;;;98.85;93.90;;;6.60;99.90;;;;;;12555082;28;20048;-35
2024/02/19 04:54:39;;;;;;;82.55;78.40;;;6.60;99.90;;;;;;12572767;28;20070;-34
2024/02/19 05:00:41;;;;;;;80.78;76.60;;;6.60;99.90;;;;;;12552230;28;20049;-35
2024/02/19 05:06:43;;;;;;;69.32;65.82;;;6.60;99.90;;;;;;12564885;28;20072;-34
2024/02/19 05:12:45;;;;;;;72.70;69.03;;;6.70;99.90;;;;;;12560688;28;20052;-34
2024/02/19 05:18:47;;;;;;;83.80;79.50;;;6.70;99.90;;;;;;12557830;28;20046;-34
2024/02/19 05:24:48;;;;;;;82.03;77.82;;;6.70;99.90;;;;;;12558560;28;20053;-35
2024/02/19 05:30:50;;;;;;;76.28;72.35;;;6.70;99.90;;;;;;12573486;28;20052;-35
2024/02/19 05:36:52;;;;;;;83.78;79.50;;;6.60;99.90;;;;;;12557089;28;20052;-35
2024/02/19 05:42:54;;;;;;;93.57;88.75;;;6.60;99.90;;;;;;12565261;28;20057;-34
2024/02/19 05:48:56;;;;;;;102.30;97.00;;;6.70;99.90;;;;;;12529956;28;20559;-35
2024/02/19 05:54:58;;;;;;;92.13;87.40;;;6.70;99.90;;;;;;12583841;28;20040;-35
2024/02/19 06:01:01;;;;;;;88.78;84.13;;;6.70;99.90;;;;;;12545656;28;20484;-34
2024/02/19 06:07:03;;;;;;;84.65;80.18;;;6.80;99.90;;;;;;12562100;28;20056;-35
2024/02/19 06:13:05;;;;;;;87.35;82.93;;;6.80;99.90;;;;;;12545312;28;20049;-35
2024/02/19 06:19:08;;;;;;;95.72;90.70;;;6.80;99.90;;;;;;12535072;28;20078;-35
2024/02/19 06:25:11;;;;;;;96.23;91.07;;;6.80;99.90;;;;;;12561424;28;20044;-34
2024/02/19 06:31:13;;;;;;;106.80;101.15;;;6.80;99.90;;;;;;12562808;28;20105;-35
2024/02/19 06:37:15;;;;;;;110.07;104.18;;;6.90;99.90;;;;;;12554902;28;20059;-34
2024/02/19 06:43:18;;;;;;;112.82;106.72;;;6.80;99.90;;;;;;12558606;28;20423;-34
2024/02/19 06:49:22;;;;;;;115.97;109.90;;;6.90;99.90;;;;;;12542735;28;20072;-35
2024/02/19 06:55:24;;;;;;;110.63;104.63;;;6.90;99.90;;;;;;12538917;28;20056;-35
2024/02/19 07:01:26;;;;;;;114.03;107.90;;;6.90;99.90;;;;;;12568571;28;20060;-35
2024/02/19 07:07:28;;;;;;;113.45;107.35;;;7.10;99.90;;;;;;12552487;28;20135;-35
2024/02/19 07:13:30;;;;;;;121.95;115.05;;;7.10;99.90;;;;;;12567186;28;20383;-34
2024/02/19 07:19:32;;;;;;;118.82;112.18;;;7.10;99.90;;;;;;12564267;28;20461;-35
2024/02/19 07:25:34;;;;;;;120.88;114.32;;;7.10;99.90;;;;;;12554601;28;20424;-34
2024/02/19 07:31:36;;;;;;;110.18;104.32;;;7.10;99.90;;;;;;12574288;28;20413;-35
2024/02/19 07:37:38;;;;;;;120.65;114.05;;;7.20;99.90;;;;;;12558583;28;20084;-35
2024/02/19 07:43:40;;;;;;;117.03;110.75;;;7.30;99.90;;;;;;12551068;28;20095;-35
2024/02/19 07:49:42;;;;;;;117.95;111.70;;;7.30;99.90;;;;;;12535536;28;20344;-35
2024/02/19 07:55:44;;;;;;;108.70;103.00;;;7.30;99.90;;;;;;12562646;28;20432;-35
2024/02/19 08:01:46;;;;;;;113.97;108.07;;;7.40;99.90;;;;;;12565472;28;20057;-35
2024/02/19 08:07:49;;;;;;;103.93;98.63;;;7.50;99.90;;;;;;12550324;28;20045;-35
2024/02/19 08:13:52;;;;;;;99.47;94.30;;;7.60;99.90;;;;;;12538986;28;20136;-35
2024/02/19 08:19:54;;;;;;;96.68;91.38;;;7.60;99.90;;;;;;12575726;28;20048;-35
2024/02/19 08:25:56;;;;;;;92.90;88.20;;;7.70;99.90;;;;;;12541116;28;20048;-35
2024/02/19 08:31:59;;;;;;;84.43;79.80;;;7.90;99.90;;;;;;12574603;28;20053;-35
2024/02/19 08:38:01;;;;;;;85.65;81.15;;;7.80;99.90;;;;;;12543922;28;20743;-35
2024/02/19 08:44:03;;;;;;;83.10;78.70;;;8.00;99.90;;;;;;12557960;28;20155;-34
2024/02/19 08:50:05;;;;;;;90.57;85.88;;;8.10;99.90;;;;;;12546604;28;20592;-34
2024/02/19 08:56:07;;;;;;;79.75;75.70;;;8.10;99.90;;;;;;12547848;28;20041;-35
2024/02/19 09:02:09;;;;;;;91.45;86.65;;;8.60;99.90;;;;;;12580543;28;20082;-35
2024/02/19 09:08:12;;;;;;;96.57;91.32;;;8.50;99.90;;;;;;12572132;28;20043;-35
2024/02/19 09:14:14;;;;;;;100.47;94.90;;;8.70;99.90;;;;;;12580535;28;20068;-35
2024/02/19 09:20:16;;;;;;;88.65;84.03;;;8.60;99.90;;;;;;12546012;28;20143;-35
2024/02/19 09:26:19;;;;;;;95.50;90.43;;;8.70;99.90;;;;;;12539571;28;20049;-36
2024/02/19 09:32:20;;;;;;;81.60;76.80;;;9.00;99.90;;;;;;12550824;28;20086;-35
2024/02/19 09:38:22;;;;;;;79.22;74.93;;;9.00;99.90;;;;;;12566717;28;20536;-35
2024/02/19 09:44:24;;;;;;;83.68;79.28;;;8.80;99.90;;;;;;12570071;28;20056;-35
2024/02/19 09:50:28;;;;;;;79.22;75.05;;;8.80;99.90;;;;;;12521376;28;20040;-35
2024/02/19 09:56:31;;;;;;;80.65;76.45;;;8.90;99.90;;;;;;12528144;28;20139;-35
2024/02/19 10:02:32;;;;;;;85.72;80.68;;;9.00;99.90;;;;;;12558730;28;20045;-35
2024/02/19 10:08:35;;;;;;;100.57;95.30;;;8.90;99.90;;;;;;12542017;28;20536;-35
2024/02/19 10:14:36;;;;;;;105.28;99.28;;;9.00;99.90;;;;;;12551373;28;20070;-35
2024/02/19 10:20:48;;;;;;;128.75;121.63;;;9.00;99.90;;;;;;12579819;28;20134;-35
2024/02/19 10:26:51;;;;;;;130.35;123.05;;;9.10;99.90;;;;;;12553514;28;20587;-35
2024/02/19 10:32:52;;;;;;;139.07;131.25;;;9.20;99.90;;;;;;12566896;28;20505;-35
2024/02/19 10:38:54;;;;;;;164.90;155.45;;;9.30;99.90;;;;;;12558097;28;20489;-35
2024/02/19 10:44:57;;;;;;;150.25;141.30;;;9.20;99.90;;;;;;12565431;28;20044;-35
2024/02/19 10:51:04;;;;;;;140.82;132.75;;;9.30;99.90;;;;;;12558565;28;20123;-35
2024/02/19 10:57:07;;;;;;;147.85;139.35;;;9.30;99.90;;;;;;12575079;28;20051;-35
2024/02/19 11:03:11;;;;;;;168.35;158.73;;;9.30;99.90;;;;;;12582934;28;20787;-35
2024/02/19 11:09:13;;;;;;;186.73;175.60;;;9.30;99.90;;;;;;12563201;28;20485;-35
2024/02/19 11:15:20;;;;;;;172.27;162.23;;;9.20;99.90;;;;;;12559851;28;20135;-35
2024/02/19 11:21:22;;;;;;;173.50;163.73;;;9.10;99.90;;;;;;12551080;28;20516;-35
2024/02/19 11:27:24;;;;;;;171.48;161.43;;;9.40;99.90;;;;;;12572499;28;20063;-35
2024/02/19 11:33:25;;;;;;;168.95;159.15;;;9.60;99.90;;;;;;12574055;28;20531;-35
2024/02/19 11:39:28;;;;;;;175.23;164.80;;;9.70;99.90;;;;;;12572431;28;20056;-35
2024/02/19 11:45:31;;;;;;;172.60;162.75;;;9.80;99.90;;;;;;12572366;28;20056;-35
2024/02/19 11:51:35;;;;;;;166.70;156.85;;;9.90;99.90;;;;;;12555560;28;20519;-35
2024/02/19 11:57:37;;;;;;;184.18;173.57;;;9.90;99.90;;;;;;12570425;28;20072;-35
2024/02/19 12:03:40;;;;;;;183.55;172.88;;;9.90;99.90;;;;;;12570945;28;20097;-34
2024/02/19 12:09:43;;;;;;;157.27;148.27;;;10.10;99.90;;;;;;12558370;28;20136;-35
2024/02/19 12:15:51;;;;;;;160.57;151.15;;;10.30;99.90;;;;;;12565235;28;20049;-35
2024/02/19 12:21:53;;;;;;;140.45;132.63;;;10.20;99.90;;;;;;12557115;28;20072;-35
2024/02/19 12:27:55;;;;;;;133.93;126.13;;;10.40;99.90;;;;;;12567000;28;20075;-35
2024/02/19 12:33:57;;;;;;;164.50;154.65;;;10.40;99.90;;;;;;12530781;28;20464;-35
2024/02/19 12:39:59;;;;;;;158.27;148.75;;;10.30;99.90;;;;;;12578240;28;20075;-35
2024/02/19 12:46:05;;;;;;;163.32;153.57;;;10.30;99.90;;;;;;12552461;28;20485;-35
2024/02/19 12:52:08;;;;;;;127.57;119.65;;;10.40;99.90;;;;;;12538888;28;20072;-34
2024/02/19 12:58:11;;;;;;;116.68;109.75;;;10.40;99.90;;;;;;12556298;28;20040;-35
2024/02/19 13:04:13;;;;;;;108.88;101.95;;;10.50;99.90;;;;;;12567098;28;20056;-35
2024/02/19 13:10:15;;;;;;;102.40;95.70;;;10.40;99.90;;;;;;12523967;28;20061;-35
2024/02/19 13:16:18;;;;;;;122.93;115.35;;;10.30;99.90;;;;;;12561586;28;20426;-35
2024/02/19 13:22:20;;;;;;;129.27;121.43;;;10.10;99.90;;;;;;12504623;28;20083;-35
2024/02/19 13:28:22;;;;;;;129.07;121.40;;;9.90;99.90;;;;;;12504497;28;20102;-35
2024/02/19 13:34:25;;;;;;;135.77;128.02;;;9.90;99.90;;;;;;12500231;28;20045;-35
2024/02/19 13:40:29;;;;;;;122.28;115.18;;;9.90;99.90;;;;;;12514027;28;20057;-35
2024/02/19 13:46:36;;;;;;;128.77;121.25;;;10.10;99.90;;;;;;12502336;28;20418;-35
2024/02/19 13:52:38;;;;;;;135.98;127.90;;;10.00;99.90;;;;;;12513053;28;20054;-35
2024/02/19 13:58:40;;;;;;;117.00;110.30;;;10.00;99.90;;;;;;12528324;28;20566;-35
2024/02/19 14:04:42;;;;;;;123.63;116.28;;;10.00;99.90;;;;;;12520636;28;20421;-35
2024/02/19 14:10:47;;;;;;;115.97;109.00;;;10.10;99.90;;;;;;12494602;28;20057;-35
2024/02/19 14:16:50;;;;;;;108.07;101.50;;;10.20;99.90;;;;;;12504339;28;20080;-35
2024/02/19 14:22:51;;;;;;;119.78;112.38;;;10.30;99.90;;;;;;12505176;28;20061;-35
2024/02/19 14:28:54;;;;;;;127.00;119.25;;;10.30;99.90;;;;;;12523052;28;20052;-34
2024/02/19 14:34:55;;;;;;;129.07;121.47;;;10.00;99.90;;;;;;12510788;28;20049;-35
2024/02/19 14:40:58;;;;;;;123.97;116.45;;;10.00;99.90;;;;;;12509000;28;20076;-35
2024/02/19 14:47:00;;;;;;;135.73;127.35;;;9.80;99.90;;;;;;12497429;28;20072;-35
2024/02/19 14:53:08;;;;;;;143.80;135.40;;;9.80;99.90;;;;;;12525492;28;20504;-34
2024/02/19 14:59:09;;;;;;;156.90;147.50;;;9.90;99.90;;;;;;12513579;28;20139;-35
2024/02/19 15:05:12;;;;;;;146.07;137.57;;;9.80;99.90;;;;;;12519133;28;20049;-34
2024/02/19 15:11:14;;;;;;;134.80;126.80;;;9.80;99.90;;;;;;12521142;28;20049;-35
2024/02/19 15:17:17;;;;;;;127.07;119.68;;;9.80;99.90;;;;;;12507242;28;20489;-35
2024/02/19 15:23:20;;;;;;;109.63;103.22;;;9.80;99.90;;;;;;12505830;28;20091;-35
2024/02/19 15:29:23;;;;;;;113.00;106.10;;;9.90;99.90;;;;;;12520902;28;20060;-35
2024/02/19 15:35:26;;;;;;;108.47;101.78;;;9.90;99.90;;;;;;12523851;28;20091;-35
2024/02/19 15:41:30;;;;;;;103.07;97.10;;;9.80;99.90;;;;;;12517751;28;20125;-35
2024/02/19 15:47:33;;;;;;;113.93;107.18;;;9.90;99.90;;;;;;12506610;28;20045;-35
2024/02/19 15:53:35;;;;;;;115.32;108.18;;;9.70;99.90;;;;;;12529217;28;20056;-35
2024/02/19 15:59:37;;;;;;;124.15;116.68;;;9.50;99.90;;;;;;12525113;28;20137;-35
2024/02/19 16:05:38;;;;;;;134.02;125.95;;;9.40;99.90;;;;;;12525940;28;20512;-34
2024/02/19 16:11:40;;;;;;;139.55;130.90;;;9.30;99.90;;;;;;12497243;28;20464;-35
2024/02/19 16:17:42;;;;;;;128.50;120.68;;;9.20;99.90;;;;;;12524872;28;20049;-35
2024/02/19 16:23:44;;;;;;;154.80;145.65;;;9.20;99.90;;;;;;12510967;28;20075;-35
2024/02/19 16:29:46;;;;;;;172.35;161.68;;;9.30;99.90;;;;;;12521275;28;20051;-35
2024/02/19 16:35:48;;;;;;;185.75;174.20;;;9.30;99.90;;;;;;12531864;28;20459;-35
2024/02/19 16:41:50;;;;;;;193.82;182.32;;;9.20;99.90;;;;;;12499239;28;20073;-35
2024/02/19 16:47:55;;;;;;;182.75;171.85;;;9.10;99.90;;;;;;12515191;28;20047;-35
2024/02/19 16:53:57;;;;;;;179.93;169.20;;;9.00;99.90;;;;;;12506823;28;20045;-34
2024/02/19 17:00:00;;;;;;;174.73;164.38;;;9.00;99.90;;;;;;12522481;28;20069;-35
2024/02/19 17:06:03;;;;;;;179.57;168.77;;;9.00;99.90;;;;;;12509386;28;20533;-35
2024/02/19 17:12:05;;;;;;;164.63;154.57;;;8.90;99.90;;;;;;12494400;28;20049;-35
2024/02/19 17:18:07;;;;;;;172.45;161.73;;;8.90;99.90;;;;;;12508596;28;20095;-35
2024/02/19 17:24:09;;;;;;;158.48;148.45;;;9.00;99.90;;;;;;12565437;28;20048;-35
2024/02/19 17:30:12;;;;;;;157.02;147.10;;;9.10;99.90;;;;;;12573086;28;20143;-35
2024/02/19 17:36:14;;;;;;;162.02;152.07;;;9.10;99.90;;;;;;12546266;28;20040;-35
2024/02/19 17:42:18;;;;;;;155.02;145.57;;;9.10;99.90;;;;;;12565445;28;20135;-34
2024/02/19 17:48:21;;;;;;;154.70;145.00;;;9.10;99.90;;;;;;12563660;28;20071;-34
2024/02/19 17:54:23;;;;;;;165.05;154.52;;;9.20;99.90;;;;;;12561696;28;20075;-35
2024/02/19 18:00:25;;;;;;;163.80;153.85;;;9.10;99.90;;;;;;12549148;28;20060;-35
2024/02/19 18:06:27;;;;;;;167.57;157.13;;;9.10;99.90;;;;;;12544822;28;20049;-34
2024/02/19 18:12:29;;;;;;;168.90;158.20;;;9.20;99.90;;;;;;12551972;28;20076;-35
2024/02/19 18:18:32;;;;;;;149.35;139.98;;;9.10;99.90;;;;;;12552971;28;20052;-34
2024/02/19 18:24:34;;;;;;;176.18;165.15;;;9.10;99.90;;;;;;12559577;28;20417;-35
2024/02/19 18:30:36;;;;;;;175.70;165.13;;;9.10;99.90;;;;;;12559909;28;20483;-35
2024/02/19 18:36:37;;;;;;;171.45;160.70;;;9.10;99.90;;;;;;12563331;28;20091;-35
2024/02/19 18:42:43;;;;;;;147.80;138.88;;;9.00;99.90;;;;;;12563894;28;20421;-34
2024/02/19 18:48:45;;;;;;;144.18;135.82;;;8.90;99.90;;;;;;12578791;28;20045;-35
2024/02/19 18:54:47;;;;;;;148.48;139.85;;;8.80;99.90;;;;;;12559543;28;20084;-35
2024/02/19 19:00:49;;;;;;;146.70;138.20;;;8.90;99.90;;;;;;12552402;28;20041;-35
2024/02/19 19:06:51;;;;;;;158.93;149.00;;;8.80;99.90;;;;;;12559864;28;20445;-35
2024/02/19 19:12:53;;;;;;;158.50;148.60;;;8.80;99.90;;;;;;12545024;28;20041;-35
2024/02/19 19:18:56;;;;;;;147.65;138.45;;;8.90;99.90;;;;;;12568308;28;20053;-35
2024/02/19 19:24:59;;;;;;;153.73;144.30;;;8.80;99.90;;;;;;12536324;28;20128;-35
2024/02/19 19:31:02;;;;;;;155.70;146.38;;;8.80;99.90;;;;;;12554344;28;20052;-35
2024/02/19 19:37:04;;;;;;;142.10;133.38;;;8.70;99.90;;;;;;12539233;28;20052;-35
2024/02/19 19:43:05;;;;;;;139.05;130.90;;;8.70;99.90;;;;;;12556089;28;20097;-35
2024/02/19 19:49:08;;;;;;;143.40;135.20;;;8.70;99.90;;;;;;12577496;28;20049;-35
2024/02/19 19:55:10;;;;;;;134.45;126.55;;;8.60;99.90;;;;;;12549507;28;20131;-35
2024/02/19 20:01:12;;;;;;;138.55;130.55;;;8.50;99.90;;;;;;12557986;28;20044;-35
2024/02/19 20:07:14;;;;;;;138.80;130.27;;;8.50;99.90;;;;;;12573925;28;20057;-35
2024/02/19 20:13:16;;;;;;;144.20;135.95;;;8.30;99.90;;;;;;12565360;28;20044;-35
2024/02/19 20:19:18;;;;;;;143.20;135.00;;;8.30;99.90;;;;;;12547340;28;20060;-35
2024/02/19 20:25:21;;;;;;;133.20;125.45;;;8.30;99.90;;;;;;12563600;28;20060;-35
2024/02/19 20:31:23;;;;;;;134.90;127.20;;;8.30;99.90;;;;;;12564454;28;20045;-35
2024/02/19 20:37:25;;;;;;;136.55;128.65;;;8.30;99.90;;;;;;12557576;28;20044;-34
2024/02/19 20:43:27;;;;;;;137.40;129.50;;;8.30;99.90;;;;;;12558269;28;20416;-34
2024/02/19 20:49:30;;;;;;;137.73;129.55;;;8.30;99.90;;;;;;12562337;28;20094;-35
2024/02/19 20:55:32;;;;;;;138.95;130.80;;;8.30;99.90;;;;;;12562296;28;20111;-34
2024/02/19 21:01:34;;;;;;;148.20;139.60;;;8.20;99.90;;;;;;12554493;28;20049;-35
2024/02/19 21:07:37;;;;;;;168.00;157.63;;;8.20;99.90;;;;;;12557467;28;20553;-35
2024/02/19 21:13:39;;;;;;;149.35;140.68;;;8.20;99.90;;;;;;12567096;28;20132;-35
2024/02/19 21:19:41;;;;;;;155.65;146.45;;;8.20;99.90;;;;;;12549736;28;20052;-35
2024/02/19 21:25:43;;;;;;;155.18;146.13;;;8.20;99.90;;;;;;12540695;28;20045;-35
2024/02/19 21:31:45;;;;;;;163.75;154.05;;;8.20;99.90;;;;;;12548692;28;20056;-35
2024/02/19 21:37:49;;;;;;;162.70;152.93;;;8.20;99.90;;;;;;12553599;28;20139;-35
2024/02/19 21:43:51;;;;;;;162.15;152.65;;;8.20;99.90;;;;;;12557262;28;20041;-34
2024/02/19 21:49:53;;;;;;;158.20;148.77;;;8.20;99.90;;;;;;12549766;28;20390;-35
2024/02/19 21:55:55;;;;;;;155.05;146.07;;;8.30;99.90;;;;;;12566972;28;20040;-35
2024/02/19 22:01:58;;;;;;;146.35;137.82;;;8.20;99.90;;;;;;12564031;28;20048;-35
2024/02/19 22:08:00;;;;;;;139.80;131.63;;;8.20;99.90;;;;;;12537397;28;20206;-35
2024/02/19 22:14:02;;;;;;;132.80;125.22;;;8.20;99.90;;;;;;12559436;28;20048;-35
2024/02/19 22:20:05;;;;;;;138.02;130.25;;;8.20;99.90;;;;;;12561982;28;20044;-35
2024/02/19 22:26:07;;;;;;;131.65;124.22;;;8.20;99.90;;;;;;12552611;28;20432;-35
2024/02/19 22:32:09;;;;;;;127.05;120.00;;;8.20;99.90;;;;;;12562264;28;20072;-35
2024/02/19 22:38:11;;;;;;;121.47;114.50;;;8.10;99.90;;;;;;12532329;28;20045;-35
2024/02/19 22:44:13;;;;;;;115.10;108.47;;;8.20;99.90;;;;;;12553427;28;20079;-35
2024/02/19 22:50:15;;;;;;;108.30;102.38;;;8.20;99.90;;;;;;12539119;28;20084;-35
2024/02/19 22:56:16;;;;;;;106.45;100.40;;;8.10;99.90;;;;;;12547920;28;20045;-35
2024/02/19 23:02:18;;;;;;;106.55;100.22;;;8.00;99.90;;;;;;12529691;28;20519;-35
2024/02/19 23:08:22;;;;;;;108.75;102.80;;;8.10;99.90;;;;;;12554871;28;20544;-35
2024/02/19 23:14:23;;;;;;;110.40;104.65;;;8.10;99.90;;;;;;12562893;28;20048;-35
2024/02/19 23:20:26;;;;;;;116.97;110.38;;;7.90;99.90;;;;;;12542506;28;20060;-35
2024/02/19 23:26:29;;;;;;;122.35;115.63;;;7.90;99.90;;;;;;12570702;28;20060;-35
2024/02/19 23:32:31;;;;;;;123.60;116.68;;;7.80;99.90;;;;;;12574902;28;20551;-35
2024/02/19 23:38:33;;;;;;;124.78;117.68;;;7.80;99.90;;;;;;12576303;28;20508;-35
2024/02/19 23:44:36;;;;;;;118.82;111.82;;;7.70;99.90;;;;;;12542530;28;20095;-35
2024/02/19 23:50:38;;;;;;;113.68;107.55;;;7.70;99.90;;;;;;12557093;28;20048;-35
2024/02/19 23:56:39;;;;;;;115.30;108.60;;;7.80;99.90;;;;;;12571531;28;20048;-35
